sensor_id;sensor_type;location;lat;lon;timestamp;P1;durP1;ratioP1;P2;durP2;ratioP2
67074;SDS011;53990;50.334;18.640;2023-02-28T00:01:21;11.80;;;6.60;;
67074;SDS011;53990;50.334;18.640;2023-02-28T00:03:49;14.40;;;6.50;;
67074;SDS011;53990;50.334;18.640;2023-02-28T00:06:16;16.90;;;6.90;;
67074;SDS011;53990;50.334;18.640;2023-02-28T00:08:44;13.90;;;7.00;;
67074;SDS011;53990;50.334;18.640;2023-02-28T00:11:13;16.00;;;7.70;;
67074;SDS011;53990;50.334;18.640;2023-02-28T00:13:44;15.80;;;7.40;;
67074;SDS011;53990;50.334;18.640;2023-02-28T00:16:20;15.30;;;7.20;;
67074;SDS011;53990;50.334;18.640;2023-02-28T00:18:48;16.30;;;7.50;;
67074;SDS011;53990;50.334;18.640;2023-02-28T00:21:17;14.30;;;7.60;;
67074;SDS011;53990;50.334;18.640;2023-02-28T00:23:45;16.00;;;8.20;;
67074;SDS011;53990;50.334;18.640;2023-02-28T00:26:12;18.10;;;9.20;;
67074;SDS011;53990;50.334;18.640;2023-02-28T00:28:40;19.80;;;9.20;;
67074;SDS011;53990;50.334;18.640;2023-02-28T00:31:07;21.20;;;9.50;;
67074;SDS011;53990;50.334;18.640;2023-02-28T00:33:34;16.80;;;8.90;;
67074;SDS011;53990;50.334;18.640;2023-02-28T00:36:08;16.40;;;8.40;;
67074;SDS011;53990;50.334;18.640;2023-02-28T00:38:39;19.00;;;8.80;;
67074;SDS011;53990;50.334;18.640;2023-02-28T00:41:07;21.40;;;8.60;;
67074;SDS011;53990;50.334;18.640;2023-02-28T00:43:37;19.50;;;8.20;;
67074;SDS011;53990;50.334;18.640;2023-02-28T00:46:06;21.70;;;9.30;;
67074;SDS011;53990;50.334;18.640;2023-02-28T00:48:39;20.70;;;9.10;;
67074;SDS011;53990;50.334;18.640;2023-02-28T00:51:07;20.20;;;9.30;;
67074;SDS011;53990;50.334;18.640;2023-02-28T00:53:35;18.00;;;8.90;;
67074;SDS011;53990;50.334;18.640;2023-02-28T00:56:02;19.80;;;9.50;;
67074;SDS011;53990;50.334;18.640;2023-02-28T00:58:31;19.40;;;9.10;;
67074;SDS011;53990;50.334;18.640;2023-02-28T01:01:02;16.90;;;8.70;;
67074;SDS011;53990;50.334;18.640;2023-02-28T01:03:30;19.40;;;9.00;;
67074;SDS011;53990;50.334;18.640;2023-02-28T01:05:57;19.30;;;8.80;;
67074;SDS011;53990;50.334;18.640;2023-02-28T01:08:25;19.20;;;9.20;;
67074;SDS011;53990;50.334;18.640;2023-02-28T01:10:54;18.60;;;9.10;;
67074;SDS011;53990;50.334;18.640;2023-02-28T01:13:21;18.10;;;8.60;;
67074;SDS011;53990;50.334;18.640;2023-02-28T01:15:52;17.40;;;8.40;;
67074;SDS011;53990;50.334;18.640;2023-02-28T01:18:21;17.70;;;8.10;;
67074;SDS011;53990;50.334;18.640;2023-02-28T01:20:49;16.10;;;7.90;;
67074;SDS011;53990;50.334;18.640;2023-02-28T01:23:19;16.00;;;8.50;;
67074;SDS011;53990;50.334;18.640;2023-02-28T01:25:47;16.00;;;8.50;;
67074;SDS011;53990;50.334;18.640;2023-02-28T01:28:15;17.50;;;8.80;;
67074;SDS011;53990;50.334;18.640;2023-02-28T01:30:42;20.60;;;9.10;;
67074;SDS011;53990;50.334;18.640;2023-02-28T01:33:09;16.50;;;8.90;;
67074;SDS011;53990;50.334;18.640;2023-02-28T01:35:37;18.40;;;9.70;;
67074;SDS011;53990;50.334;18.640;2023-02-28T01:38:05;21.80;;;9.00;;
67074;SDS011;53990;50.334;18.640;2023-02-28T01:40:32;15.90;;;8.70;;
67074;SDS011;53990;50.334;18.640;2023-02-28T01:43:00;19.40;;;9.70;;
67074;SDS011;53990;50.334;18.640;2023-02-28T01:45:29;20.70;;;10.70;;
67074;SDS011;53990;50.334;18.640;2023-02-28T01:48:00;20.10;;;9.80;;
67074;SDS011;53990;50.334;18.640;2023-02-28T01:50:32;21.60;;;10.10;;
67074;SDS011;53990;50.334;18.640;2023-02-28T01:53:04;18.90;;;10.90;;
67074;SDS011;53990;50.334;18.640;2023-02-28T01:55:34;20.80;;;11.20;;
67074;SDS011;53990;50.334;18.640;2023-02-28T01:58:21;20.40;;;11.10;;
67074;SDS011;53990;50.334;18.640;2023-02-28T02:01:48;24.90;;;11.10;;
67074;SDS011;53990;50.334;18.640;2023-02-28T02:05:15;21.70;;;11.80;;
67074;SDS011;53990;50.334;18.640;2023-02-28T02:08:36;26.60;;;12.50;;
67074;SDS011;53990;50.334;18.640;2023-02-28T02:11:05;22.60;;;11.70;;
67074;SDS011;53990;50.334;18.640;2023-02-28T02:13:54;23.00;;;11.10;;
67074;SDS011;53990;50.334;18.640;2023-02-28T02:16:51;22.20;;;11.40;;
67074;SDS011;53990;50.334;18.640;2023-02-28T02:20:06;20.30;;;11.60;;
67074;SDS011;53990;50.334;18.640;2023-02-28T02:23:05;24.90;;;12.80;;
67074;SDS011;53990;50.334;18.640;2023-02-28T02:25:53;25.80;;;12.80;;
67074;SDS011;53990;50.334;18.640;2023-02-28T02:28:56;27.10;;;12.40;;
67074;SDS011;53990;50.334;18.640;2023-02-28T02:32:07;20.80;;;11.60;;
67074;SDS011;53990;50.334;18.640;2023-02-28T02:37:34;21.90;;;12.00;;
67074;SDS011;53990;50.334;18.640;2023-02-28T02:40:16;23.60;;;12.00;;
67074;SDS011;53990;50.334;18.640;2023-02-28T02:43:08;21.60;;;11.00;;
67074;SDS011;53990;50.334;18.640;2023-02-28T02:45:50;22.80;;;10.80;;
67074;SDS011;53990;50.334;18.640;2023-02-28T02:48:21;23.90;;;11.90;;
67074;SDS011;53990;50.334;18.640;2023-02-28T02:50:55;22.50;;;11.40;;
67074;SDS011;53990;50.334;18.640;2023-02-28T02:53:32;22.00;;;10.70;;
67074;SDS011;53990;50.334;18.640;2023-02-28T02:56:10;23.00;;;11.50;;
67074;SDS011;53990;50.334;18.640;2023-02-28T02:58:43;20.00;;;11.30;;
67074;SDS011;53990;50.334;18.640;2023-02-28T03:01:22;22.70;;;12.40;;
67074;SDS011;53990;50.334;18.640;2023-02-28T03:04:03;24.10;;;12.80;;
67074;SDS011;53990;50.334;18.640;2023-02-28T03:06:31;23.20;;;11.50;;
67074;SDS011;53990;50.334;18.640;2023-02-28T03:09:17;23.80;;;11.90;;
67074;SDS011;53990;50.334;18.640;2023-02-28T03:11:47;22.70;;;11.70;;
67074;SDS011;53990;50.334;18.640;2023-02-28T03:18:13;20.40;;;11.50;;
67074;SDS011;53990;50.334;18.640;2023-02-28T03:26:13;20.20;;;11.70;;
67074;SDS011;53990;50.334;18.640;2023-02-28T03:31:22;21.50;;;11.10;;
67074;SDS011;53990;50.334;18.640;2023-02-28T03:34:01;23.60;;;11.40;;
67074;SDS011;53990;50.334;18.640;2023-02-28T03:36:35;21.30;;;11.20;;
67074;SDS011;53990;50.334;18.640;2023-02-28T03:42:09;24.90;;;11.30;;
67074;SDS011;53990;50.334;18.640;2023-02-28T03:44:45;21.50;;;11.60;;
67074;SDS011;53990;50.334;18.640;2023-02-28T03:47:18;22.20;;;11.30;;
67074;SDS011;53990;50.334;18.640;2023-02-28T03:49:53;18.00;;;10.90;;
67074;SDS011;53990;50.334;18.640;2023-02-28T03:52:24;22.00;;;11.40;;
67074;SDS011;53990;50.334;18.640;2023-02-28T03:54:58;23.30;;;11.00;;
67074;SDS011;53990;50.334;18.640;2023-02-28T03:57:56;18.90;;;10.50;;
67074;SDS011;53990;50.334;18.640;2023-02-28T04:00:31;18.60;;;10.30;;
67074;SDS011;53990;50.334;18.640;2023-02-28T04:02:59;20.60;;;10.60;;
67074;SDS011;53990;50.334;18.640;2023-02-28T04:05:27;20.50;;;11.30;;
67074;SDS011;53990;50.334;18.640;2023-02-28T04:08:06;23.40;;;11.80;;
67074;SDS011;53990;50.334;18.640;2023-02-28T04:10:34;18.30;;;10.10;;
67074;SDS011;53990;50.334;18.640;2023-02-28T04:13:02;20.00;;;10.90;;
67074;SDS011;53990;50.334;18.640;2023-02-28T04:15:29;23.20;;;11.20;;
67074;SDS011;53990;50.334;18.640;2023-02-28T04:17:57;21.30;;;11.20;;
67074;SDS011;53990;50.334;18.640;2023-02-28T04:20:25;24.70;;;11.90;;
67074;SDS011;53990;50.334;18.640;2023-02-28T04:22:52;23.00;;;11.30;;
67074;SDS011;53990;50.334;18.640;2023-02-28T04:25:19;22.10;;;11.10;;
67074;SDS011;53990;50.334;18.640;2023-02-28T04:27:47;23.20;;;11.80;;
67074;SDS011;53990;50.334;18.640;2023-02-28T04:30:15;26.20;;;12.90;;
67074;SDS011;53990;50.334;18.640;2023-02-28T04:32:42;31.20;;;13.80;;
67074;SDS011;53990;50.334;18.640;2023-02-28T04:35:10;35.10;;;14.80;;
67074;SDS011;53990;50.334;18.640;2023-02-28T04:37:37;30.60;;;14.20;;
67074;SDS011;53990;50.334;18.640;2023-02-28T04:40:05;26.60;;;13.90;;
67074;SDS011;53990;50.334;18.640;2023-02-28T04:42:33;32.50;;;13.60;;
67074;SDS011;53990;50.334;18.640;2023-02-28T04:45:03;29.00;;;14.10;;
67074;SDS011;53990;50.334;18.640;2023-02-28T04:47:41;27.10;;;13.00;;
67074;SDS011;53990;50.334;18.640;2023-02-28T04:50:10;29.70;;;12.80;;
67074;SDS011;53990;50.334;18.640;2023-02-28T04:53:11;26.00;;;12.70;;
67074;SDS011;53990;50.334;18.640;2023-02-28T04:55:39;28.70;;;14.00;;
67074;SDS011;53990;50.334;18.640;2023-02-28T04:58:07;24.50;;;12.70;;
67074;SDS011;53990;50.334;18.640;2023-02-28T05:00:35;30.60;;;13.80;;
67074;SDS011;53990;50.334;18.640;2023-02-28T05:03:03;26.90;;;13.20;;
67074;SDS011;53990;50.334;18.640;2023-02-28T05:05:32;25.30;;;13.80;;
67074;SDS011;53990;50.334;18.640;2023-02-28T05:08:18;25.90;;;13.00;;
67074;SDS011;53990;50.334;18.640;2023-02-28T05:11:24;32.20;;;14.50;;
67074;SDS011;53990;50.334;18.640;2023-02-28T05:13:52;25.60;;;13.40;;
67074;SDS011;53990;50.334;18.640;2023-02-28T05:16:21;25.40;;;13.60;;
67074;SDS011;53990;50.334;18.640;2023-02-28T05:18:48;24.00;;;12.60;;
67074;SDS011;53990;50.334;18.640;2023-02-28T05:21:30;23.90;;;11.90;;
67074;SDS011;53990;50.334;18.640;2023-02-28T05:24:01;26.30;;;11.70;;
67074;SDS011;53990;50.334;18.640;2023-02-28T05:26:30;21.70;;;11.40;;
67074;SDS011;53990;50.334;18.640;2023-02-28T05:29:28;24.20;;;12.50;;
67074;SDS011;53990;50.334;18.640;2023-02-28T05:32:02;25.10;;;12.80;;
67074;SDS011;53990;50.334;18.640;2023-02-28T05:34:30;25.80;;;13.40;;
67074;SDS011;53990;50.334;18.640;2023-02-28T05:36:57;24.50;;;14.10;;
67074;SDS011;53990;50.334;18.640;2023-02-28T05:39:25;24.80;;;12.20;;
67074;SDS011;53990;50.334;18.640;2023-02-28T05:41:52;24.90;;;13.30;;
67074;SDS011;53990;50.334;18.640;2023-02-28T05:44:19;30.50;;;13.30;;
67074;SDS011;53990;50.334;18.640;2023-02-28T05:46:47;25.90;;;13.00;;
67074;SDS011;53990;50.334;18.640;2023-02-28T05:49:14;25.40;;;13.20;;
67074;SDS011;53990;50.334;18.640;2023-02-28T05:51:42;27.00;;;14.20;;
67074;SDS011;53990;50.334;18.640;2023-02-28T05:54:09;26.80;;;14.30;;
67074;SDS011;53990;50.334;18.640;2023-02-28T05:56:37;33.40;;;17.20;;
67074;SDS011;53990;50.334;18.640;2023-02-28T05:59:07;25.20;;;14.20;;
67074;SDS011;53990;50.334;18.640;2023-02-28T06:01:40;32.20;;;14.10;;
67074;SDS011;53990;50.334;18.640;2023-02-28T06:04:09;26.80;;;13.80;;
67074;SDS011;53990;50.334;18.640;2023-02-28T06:06:37;29.70;;;15.20;;
67074;SDS011;53990;50.334;18.640;2023-02-28T06:09:05;28.90;;;14.10;;
67074;SDS011;53990;50.334;18.640;2023-02-28T06:11:32;26.80;;;14.40;;
67074;SDS011;53990;50.334;18.640;2023-02-28T06:14:04;27.50;;;14.60;;
67074;SDS011;53990;50.334;18.640;2023-02-28T06:16:33;31.10;;;15.30;;
67074;SDS011;53990;50.334;18.640;2023-02-28T06:19:04;28.10;;;15.00;;
67074;SDS011;53990;50.334;18.640;2023-02-28T06:21:31;31.60;;;15.70;;
67074;SDS011;53990;50.334;18.640;2023-02-28T06:24:00;26.50;;;15.10;;
67074;SDS011;53990;50.334;18.640;2023-02-28T06:26:29;26.90;;;14.50;;
67074;SDS011;53990;50.334;18.640;2023-02-28T06:28:58;25.50;;;14.60;;
67074;SDS011;53990;50.334;18.640;2023-02-28T06:31:28;30.10;;;15.20;;
67074;SDS011;53990;50.334;18.640;2023-02-28T06:33:56;29.50;;;15.50;;
67074;SDS011;53990;50.334;18.640;2023-02-28T06:36:23;29.40;;;15.50;;
67074;SDS011;53990;50.334;18.640;2023-02-28T06:38:51;29.80;;;14.90;;
67074;SDS011;53990;50.334;18.640;2023-02-28T06:41:24;30.70;;;16.30;;
67074;SDS011;53990;50.334;18.640;2023-02-28T06:43:52;31.10;;;16.00;;
67074;SDS011;53990;50.334;18.640;2023-02-28T06:46:20;33.60;;;17.00;;
67074;SDS011;53990;50.334;18.640;2023-02-28T06:48:47;29.60;;;16.10;;
67074;SDS011;53990;50.334;18.640;2023-02-28T06:51:19;49.40;;;27.30;;
67074;SDS011;53990;50.334;18.640;2023-02-28T06:53:49;32.20;;;17.20;;
67074;SDS011;53990;50.334;18.640;2023-02-28T06:56:17;31.70;;;16.60;;
67074;SDS011;53990;50.334;18.640;2023-02-28T06:58:53;28.70;;;15.90;;
67074;SDS011;53990;50.334;18.640;2023-02-28T07:01:57;28.00;;;14.60;;
67074;SDS011;53990;50.334;18.640;2023-02-28T07:04:49;32.30;;;16.00;;
67074;SDS011;53990;50.334;18.640;2023-02-28T07:07:31;28.90;;;15.90;;
67074;SDS011;53990;50.334;18.640;2023-02-28T07:10:14;29.10;;;15.80;;
67074;SDS011;53990;50.334;18.640;2023-02-28T07:12:49;27.60;;;14.90;;
67074;SDS011;53990;50.334;18.640;2023-02-28T07:15:28;30.70;;;15.40;;
67074;SDS011;53990;50.334;18.640;2023-02-28T07:18:07;34.00;;;18.30;;
67074;SDS011;53990;50.334;18.640;2023-02-28T07:20:48;28.60;;;15.80;;
67074;SDS011;53990;50.334;18.640;2023-02-28T07:24:00;27.00;;;14.90;;
67074;SDS011;53990;50.334;18.640;2023-02-28T07:27:21;34.30;;;16.40;;
67074;SDS011;53990;50.334;18.640;2023-02-28T07:30:21;29.20;;;15.60;;
67074;SDS011;53990;50.334;18.640;2023-02-28T07:33:09;33.70;;;15.90;;
67074;SDS011;53990;50.334;18.640;2023-02-28T07:35:48;29.60;;;15.60;;
67074;SDS011;53990;50.334;18.640;2023-02-28T07:38:51;30.00;;;15.50;;
67074;SDS011;53990;50.334;18.640;2023-02-28T07:41:48;29.40;;;15.80;;
67074;SDS011;53990;50.334;18.640;2023-02-28T07:44:40;30.60;;;16.60;;
67074;SDS011;53990;50.334;18.640;2023-02-28T07:47:38;30.70;;;15.70;;
67074;SDS011;53990;50.334;18.640;2023-02-28T07:52:04;30.50;;;15.70;;
67074;SDS011;53990;50.334;18.640;2023-02-28T07:55:06;33.00;;;17.00;;
67074;SDS011;53990;50.334;18.640;2023-02-28T07:58:01;28.70;;;16.50;;
67074;SDS011;53990;50.334;18.640;2023-02-28T08:01:07;29.10;;;16.50;;
67074;SDS011;53990;50.334;18.640;2023-02-28T08:03:55;31.10;;;16.00;;
67074;SDS011;53990;50.334;18.640;2023-02-28T08:07:14;35.40;;;17.80;;
67074;SDS011;53990;50.334;18.640;2023-02-28T08:10:03;36.30;;;19.20;;
67074;SDS011;53990;50.334;18.640;2023-02-28T08:13:01;29.20;;;15.60;;
67074;SDS011;53990;50.334;18.640;2023-02-28T08:15:44;24.10;;;13.60;;
67074;SDS011;53990;50.334;18.640;2023-02-28T08:21:16;28.80;;;15.20;;
67074;SDS011;53990;50.334;18.640;2023-02-28T08:24:48;23.40;;;13.00;;
67074;SDS011;53990;50.334;18.640;2023-02-28T08:27:33;28.20;;;14.30;;
67074;SDS011;53990;50.334;18.640;2023-02-28T08:30:27;28.00;;;14.20;;
67074;SDS011;53990;50.334;18.640;2023-02-28T08:33:27;29.20;;;14.70;;
67074;SDS011;53990;50.334;18.640;2023-02-28T08:35:58;27.80;;;15.20;;
67074;SDS011;53990;50.334;18.640;2023-02-28T08:38:58;27.70;;;16.00;;
67074;SDS011;53990;50.334;18.640;2023-02-28T08:44:28;34.80;;;19.30;;
67074;SDS011;53990;50.334;18.640;2023-02-28T08:47:13;36.70;;;20.10;;
67074;SDS011;53990;50.334;18.640;2023-02-28T08:50:14;40.60;;;20.50;;
67074;SDS011;53990;50.334;18.640;2023-02-28T08:52:51;41.40;;;20.30;;
67074;SDS011;53990;50.334;18.640;2023-02-28T08:56:05;46.10;;;22.40;;
67074;SDS011;53990;50.334;18.640;2023-02-28T08:58:47;46.30;;;23.20;;
67074;SDS011;53990;50.334;18.640;2023-02-28T09:01:30;48.20;;;22.90;;
67074;SDS011;53990;50.334;18.640;2023-02-28T09:03:59;41.70;;;22.30;;
67074;SDS011;53990;50.334;18.640;2023-02-28T09:06:52;40.90;;;20.80;;
67074;SDS011;53990;50.334;18.640;2023-02-28T09:09:29;41.90;;;21.90;;
67074;SDS011;53990;50.334;18.640;2023-02-28T09:11:59;35.40;;;19.90;;
67074;SDS011;53990;50.334;18.640;2023-02-28T09:14:27;37.00;;;20.30;;
67074;SDS011;53990;50.334;18.640;2023-02-28T09:17:27;37.40;;;20.00;;
67074;SDS011;53990;50.334;18.640;2023-02-28T09:19:57;39.60;;;22.00;;
67074;SDS011;53990;50.334;18.640;2023-02-28T09:24:54;35.60;;;19.60;;
67074;SDS011;53990;50.334;18.640;2023-02-28T09:27:24;34.50;;;18.10;;
67074;SDS011;53990;50.334;18.640;2023-02-28T09:29:51;32.80;;;19.10;;
67074;SDS011;53990;50.334;18.640;2023-02-28T09:32:21;31.50;;;17.70;;
67074;SDS011;53990;50.334;18.640;2023-02-28T09:34:48;28.50;;;18.20;;
67074;SDS011;53990;50.334;18.640;2023-02-28T09:37:15;34.90;;;20.80;;
67074;SDS011;53990;50.334;18.640;2023-02-28T09:39:43;36.90;;;21.70;;
67074;SDS011;53990;50.334;18.640;2023-02-28T09:42:33;39.00;;;23.60;;
67074;SDS011;53990;50.334;18.640;2023-02-28T09:45:07;37.70;;;23.00;;
67074;SDS011;53990;50.334;18.640;2023-02-28T09:47:42;33.70;;;19.90;;
67074;SDS011;53990;50.334;18.640;2023-02-28T09:52:55;37.50;;;20.70;;
67074;SDS011;53990;50.334;18.640;2023-02-28T09:55:30;32.50;;;19.30;;
67074;SDS011;53990;50.334;18.640;2023-02-28T09:57:58;35.40;;;20.10;;
67074;SDS011;53990;50.334;18.640;2023-02-28T10:00:33;31.40;;;18.30;;
67074;SDS011;53990;50.334;18.640;2023-02-28T10:05:47;32.90;;;18.10;;
67074;SDS011;53990;50.334;18.640;2023-02-28T10:08:26;29.90;;;16.80;;
67074;SDS011;53990;50.334;18.640;2023-02-28T10:11:07;27.10;;;15.70;;
67074;SDS011;53990;50.334;18.640;2023-02-28T10:13:36;30.90;;;16.50;;
67074;SDS011;53990;50.334;18.640;2023-02-28T10:16:12;33.20;;;18.70;;
67074;SDS011;53990;50.334;18.640;2023-02-28T10:18:47;34.40;;;18.60;;
67074;SDS011;53990;50.334;18.640;2023-02-28T10:21:21;32.40;;;18.50;;
67074;SDS011;53990;50.334;18.640;2023-02-28T10:23:49;33.20;;;18.80;;
67074;SDS011;53990;50.334;18.640;2023-02-28T10:26:17;29.10;;;18.00;;
67074;SDS011;53990;50.334;18.640;2023-02-28T10:28:45;39.80;;;20.00;;
67074;SDS011;53990;50.334;18.640;2023-02-28T10:31:18;29.20;;;17.20;;
67074;SDS011;53990;50.334;18.640;2023-02-28T10:33:47;28.10;;;16.10;;
67074;SDS011;53990;50.334;18.640;2023-02-28T10:36:17;27.60;;;16.40;;
67074;SDS011;53990;50.334;18.640;2023-02-28T10:38:46;27.90;;;16.10;;
67074;SDS011;53990;50.334;18.640;2023-02-28T10:41:16;30.10;;;16.70;;
67074;SDS011;53990;50.334;18.640;2023-02-28T10:43:44;28.90;;;17.10;;
67074;SDS011;53990;50.334;18.640;2023-02-28T10:46:16;31.90;;;17.00;;
67074;SDS011;53990;50.334;18.640;2023-02-28T10:49:04;28.40;;;17.50;;
67074;SDS011;53990;50.334;18.640;2023-02-28T10:51:38;28.30;;;17.70;;
67074;SDS011;53990;50.334;18.640;2023-02-28T10:54:15;31.70;;;18.70;;
67074;SDS011;53990;50.334;18.640;2023-02-28T10:56:44;35.40;;;20.10;;
67074;SDS011;53990;50.334;18.640;2023-02-28T11:01:46;32.40;;;19.20;;
67074;SDS011;53990;50.334;18.640;2023-02-28T11:04:35;30.60;;;18.00;;
67074;SDS011;53990;50.334;18.640;2023-02-28T11:07:16;32.00;;;17.90;;
67074;SDS011;53990;50.334;18.640;2023-02-28T11:09:52;29.20;;;17.10;;
67074;SDS011;53990;50.334;18.640;2023-02-28T11:17:54;23.40;;;14.20;;
67074;SDS011;53990;50.334;18.640;2023-02-28T11:20:23;27.00;;;16.80;;
67074;SDS011;53990;50.334;18.640;2023-02-28T11:22:53;30.30;;;19.20;;
67074;SDS011;53990;50.334;18.640;2023-02-28T11:25:28;28.60;;;17.70;;
67074;SDS011;53990;50.334;18.640;2023-02-28T11:28:03;26.40;;;16.00;;
67074;SDS011;53990;50.334;18.640;2023-02-28T11:30:38;24.90;;;15.20;;
67074;SDS011;53990;50.334;18.640;2023-02-28T11:34:20;22.30;;;14.80;;
67074;SDS011;53990;50.334;18.640;2023-02-28T11:36:19;23.30;;;14.80;;
67074;SDS011;53990;50.334;18.640;2023-02-28T11:38:48;23.00;;;14.40;;
67074;SDS011;53990;50.334;18.640;2023-02-28T11:41:28;25.70;;;14.70;;
67074;SDS011;53990;50.334;18.640;2023-02-28T11:44:27;24.40;;;17.80;;
67074;SDS011;53990;50.334;18.640;2023-02-28T11:47:26;25.00;;;16.80;;
67074;SDS011;53990;50.334;18.640;2023-02-28T11:52:57;26.30;;;17.70;;
67074;SDS011;53990;50.334;18.640;2023-02-28T11:58:34;24.30;;;17.20;;
67074;SDS011;53990;50.334;18.640;2023-02-28T12:01:27;23.10;;;15.60;;
67074;SDS011;53990;50.334;18.640;2023-02-28T12:04:15;24.00;;;15.00;;
67074;SDS011;53990;50.334;18.640;2023-02-28T12:10:01;19.70;;;14.40;;
67074;SDS011;53990;50.334;18.640;2023-02-28T12:20:32;18.40;;;14.30;;
67074;SDS011;53990;50.334;18.640;2023-02-28T12:25:58;18.60;;;14.30;;
67074;SDS011;53990;50.334;18.640;2023-02-28T12:28:34;19.70;;;14.00;;
67074;SDS011;53990;50.334;18.640;2023-02-28T12:31:11;18.80;;;13.60;;
67074;SDS011;53990;50.334;18.640;2023-02-28T12:33:58;16.70;;;13.10;;
67074;SDS011;53990;50.334;18.640;2023-02-28T12:36:29;19.80;;;13.80;;
67074;SDS011;53990;50.334;18.640;2023-02-28T12:39:00;18.90;;;13.90;;
67074;SDS011;53990;50.334;18.640;2023-02-28T12:41:36;18.10;;;13.70;;
67074;SDS011;53990;50.334;18.640;2023-02-28T12:44:27;20.60;;;14.60;;
67074;SDS011;53990;50.334;18.640;2023-02-28T12:47:03;17.30;;;13.70;;
67074;SDS011;53990;50.334;18.640;2023-02-28T12:50:07;17.40;;;13.90;;
67074;SDS011;53990;50.334;18.640;2023-02-28T12:55:53;19.30;;;13.50;;
67074;SDS011;53990;50.334;18.640;2023-02-28T12:58:33;18.90;;;13.60;;
67074;SDS011;53990;50.334;18.640;2023-02-28T13:10:05;20.60;;;14.10;;
67074;SDS011;53990;50.334;18.640;2023-02-28T13:12:35;19.50;;;13.40;;
67074;SDS011;53990;50.334;18.640;2023-02-28T13:17:39;20.80;;;14.40;;
67074;SDS011;53990;50.334;18.640;2023-02-28T13:20:16;19.70;;;14.70;;
67074;SDS011;53990;50.334;18.640;2023-02-28T13:22:47;21.10;;;14.40;;
67074;SDS011;53990;50.334;18.640;2023-02-28T13:25:51;23.30;;;15.30;;
67074;SDS011;53990;50.334;18.640;2023-02-28T13:31:20;19.40;;;14.80;;
67074;SDS011;53990;50.334;18.640;2023-02-28T13:38:57;18.80;;;12.80;;
67074;SDS011;53990;50.334;18.640;2023-02-28T13:44:25;19.70;;;13.30;;
67074;SDS011;53990;50.334;18.640;2023-02-28T13:56:21;18.60;;;13.70;;
67074;SDS011;53990;50.334;18.640;2023-02-28T14:09:21;22.40;;;14.50;;
67074;SDS011;53990;50.334;18.640;2023-02-28T14:11:50;18.10;;;13.00;;
67074;SDS011;53990;50.334;18.640;2023-02-28T14:17:08;25.90;;;15.80;;
67074;SDS011;53990;50.334;18.640;2023-02-28T14:19:44;26.40;;;16.00;;
67074;SDS011;53990;50.334;18.640;2023-02-28T14:22:45;24.30;;;14.70;;
67074;SDS011;53990;50.334;18.640;2023-02-28T14:25:38;22.80;;;13.90;;
67074;SDS011;53990;50.334;18.640;2023-02-28T14:30:43;21.40;;;13.60;;
67074;SDS011;53990;50.334;18.640;2023-02-28T14:33:22;24.80;;;15.50;;
67074;SDS011;53990;50.334;18.640;2023-02-28T14:38:32;24.60;;;16.30;;
67074;SDS011;53990;50.334;18.640;2023-02-28T14:41:03;26.00;;;17.10;;
67074;SDS011;53990;50.334;18.640;2023-02-28T14:43:33;22.20;;;13.40;;
67074;SDS011;53990;50.334;18.640;2023-02-28T14:46:02;22.30;;;14.40;;
67074;SDS011;53990;50.334;18.640;2023-02-28T14:48:31;21.10;;;14.10;;
67074;SDS011;53990;50.334;18.640;2023-02-28T14:51:00;21.10;;;14.20;;
67074;SDS011;53990;50.334;18.640;2023-02-28T14:53:30;24.40;;;13.90;;
67074;SDS011;53990;50.334;18.640;2023-02-28T14:55:58;21.20;;;14.70;;
67074;SDS011;53990;50.334;18.640;2023-02-28T14:58:29;22.70;;;14.30;;
67074;SDS011;53990;50.334;18.640;2023-02-28T15:01:00;19.20;;;14.30;;
67074;SDS011;53990;50.334;18.640;2023-02-28T15:03:37;19.90;;;14.00;;
67074;SDS011;53990;50.334;18.640;2023-02-28T15:08:33;21.50;;;13.60;;
67074;SDS011;53990;50.334;18.640;2023-02-28T15:11:29;22.90;;;14.70;;
67074;SDS011;53990;50.334;18.640;2023-02-28T15:13:58;23.90;;;15.10;;
67074;SDS011;53990;50.334;18.640;2023-02-28T15:16:29;22.50;;;14.80;;
67074;SDS011;53990;50.334;18.640;2023-02-28T15:19:01;23.00;;;15.60;;
67074;SDS011;53990;50.334;18.640;2023-02-28T15:21:32;21.70;;;14.80;;
67074;SDS011;53990;50.334;18.640;2023-02-28T15:24:32;26.90;;;15.20;;
67074;SDS011;53990;50.334;18.640;2023-02-28T15:27:10;24.60;;;14.90;;
67074;SDS011;53990;50.334;18.640;2023-02-28T15:29:48;21.90;;;14.70;;
67074;SDS011;53990;50.334;18.640;2023-02-28T15:32:28;22.80;;;14.70;;
67074;SDS011;53990;50.334;18.640;2023-02-28T15:34:58;21.90;;;14.40;;
67074;SDS011;53990;50.334;18.640;2023-02-28T15:40:23;24.20;;;16.10;;
67074;SDS011;53990;50.334;18.640;2023-02-28T15:43:37;23.00;;;15.60;;
67074;SDS011;53990;50.334;18.640;2023-02-28T15:46:08;24.00;;;15.10;;
67074;SDS011;53990;50.334;18.640;2023-02-28T15:48:45;24.30;;;14.80;;
67074;SDS011;53990;50.334;18.640;2023-02-28T15:51:19;23.80;;;15.40;;
67074;SDS011;53990;50.334;18.640;2023-02-28T15:53:51;26.10;;;17.40;;
67074;SDS011;53990;50.334;18.640;2023-02-28T15:56:24;33.40;;;18.80;;
67074;SDS011;53990;50.334;18.640;2023-02-28T15:58:57;31.10;;;18.70;;
67074;SDS011;53990;50.334;18.640;2023-02-28T16:03:57;22.70;;;14.40;;
67074;SDS011;53990;50.334;18.640;2023-02-28T16:09:05;26.40;;;16.60;;
67074;SDS011;53990;50.334;18.640;2023-02-28T16:11:38;24.80;;;15.30;;
67074;SDS011;53990;50.334;18.640;2023-02-28T16:14:06;23.40;;;16.10;;
67074;SDS011;53990;50.334;18.640;2023-02-28T16:16:33;27.50;;;16.10;;
67074;SDS011;53990;50.334;18.640;2023-02-28T16:19:01;24.80;;;15.30;;
67074;SDS011;53990;50.334;18.640;2023-02-28T16:21:28;27.90;;;15.50;;
67074;SDS011;53990;50.334;18.640;2023-02-28T16:23:55;29.50;;;16.70;;
67074;SDS011;53990;50.334;18.640;2023-02-28T16:26:23;34.60;;;19.70;;
67074;SDS011;53990;50.334;18.640;2023-02-28T16:28:52;35.60;;;18.20;;
67074;SDS011;53990;50.334;18.640;2023-02-28T16:31:19;39.60;;;19.40;;
67074;SDS011;53990;50.334;18.640;2023-02-28T16:33:47;43.40;;;19.20;;
67074;SDS011;53990;50.334;18.640;2023-02-28T16:36:17;40.80;;;20.10;;
67074;SDS011;53990;50.334;18.640;2023-02-28T16:38:45;42.20;;;20.40;;
67074;SDS011;53990;50.334;18.640;2023-02-28T16:41:17;45.10;;;22.10;;
67074;SDS011;53990;50.334;18.640;2023-02-28T16:43:47;37.00;;;19.30;;
67074;SDS011;53990;50.334;18.640;2023-02-28T16:46:16;37.00;;;18.70;;
67074;SDS011;53990;50.334;18.640;2023-02-28T16:48:44;32.00;;;17.60;;
67074;SDS011;53990;50.334;18.640;2023-02-28T16:51:13;35.50;;;18.50;;
67074;SDS011;53990;50.334;18.640;2023-02-28T16:53:43;43.50;;;20.60;;
67074;SDS011;53990;50.334;18.640;2023-02-28T16:56:22;51.10;;;21.80;;
67074;SDS011;53990;50.334;18.640;2023-02-28T16:58:50;61.20;;;26.30;;
67074;SDS011;53990;50.334;18.640;2023-02-28T17:01:18;65.70;;;29.50;;
67074;SDS011;53990;50.334;18.640;2023-02-28T17:03:51;66.80;;;30.40;;
67074;SDS011;53990;50.334;18.640;2023-02-28T17:06:30;70.60;;;31.90;;
67074;SDS011;53990;50.334;18.640;2023-02-28T17:08:58;61.10;;;25.80;;